Time;durP1;ratioP1;P1;durP2;ratioP2;P2;SDS_P1;SDS_P2;PMS_P1;PMS_P2;Temp;Humidity;BMP_temperature;BMP_pressure;BME280_temperature;BME280_humidity;BME280_pressure;Samples;Min_cycle;Max_cycle;Signal;HPM_P1;HPM_P2
2021/03/08 00:00:38;;;;;;;;;;;3.40;99.90;;;;;;5082934;28;20298;-81
2021/03/08 00:03:04;;;;;;;;;;;3.40;99.90;;;;;;5086319;28;20399;-84
2021/03/08 00:05:31;;;;;;;;;;;3.40;99.90;;;;;;5106951;28;19919;-80
2021/03/08 00:07:56;;;;;;;;;;;3.40;99.90;;;;;;5075548;28;19953;-81
2021/03/08 00:10:22;;;;;;;;;;;3.40;99.90;;;;;;5111575;28;19916;-80
2021/03/08 00:12:49;;;;;;;;;;;3.40;99.90;;;;;;5112493;28;19928;-80
2021/03/08 00:15:15;;;;;;;;;;;3.40;99.90;;;;;;5108863;28;19926;-80
2021/03/08 00:17:41;;;;;;;;;;;3.40;99.90;;;;;;5109252;28;19924;-81
2021/03/08 00:20:08;;;;;;;;;;;3.40;99.90;;;;;;5087650;28;20295;-80
2021/03/08 00:22:34;;;;;;;;;;;3.40;99.90;;;;;;5093814;28;19961;-81
2021/03/08 00:25:00;;;;;;;;;;;3.40;99.90;;;;;;5109159;28;20421;-80
2021/03/08 00:27:26;;;;;;;;;;;3.40;99.90;;;;;;5110171;28;19923;-81
2021/03/08 00:29:51;;;;;;;;;;;3.40;99.90;;;;;;5090742;28;19993;-81
2021/03/08 00:32:18;;;;;;;;;;;3.40;99.90;;;;;;5104761;28;19927;-81
2021/03/08 00:34:43;;;;;;;;;;;3.40;99.90;;;;;;5110073;28;19920;-80
2021/03/08 00:37:09;;;;;;;;;;;3.40;99.90;;;;;;5109343;28;20295;-80
2021/03/08 00:39:34;;;;;;;;;;;3.50;99.90;;;;;;5074482;28;19969;-80
2021/03/08 00:42:00;;;;;;;;;;;3.50;99.90;;;;;;5093089;28;20363;-81
2021/03/08 00:44:26;;;;;;;;;;;3.50;99.90;;;;;;5079618;28;20594;-81
2021/03/08 00:46:52;;;;;;;;;;;3.50;99.90;;;;;;5106957;28;20742;-82
2021/03/08 00:49:18;;;;;;;;;;;3.50;99.90;;;;;;5088419;28;20325;-79
2021/03/08 00:51:44;;;;;;;;;;;3.50;99.90;;;;;;5078454;28;19920;-81
2021/03/08 00:54:10;;;;;;;;;;;3.50;99.90;;;;;;5107295;28;20294;-83
2021/03/08 00:56:35;;;;;;;;;;;3.50;99.90;;;;;;5105532;28;19923;-80
2021/03/08 00:59:01;;;;;;;;;;;3.50;99.90;;;;;;5088099;28;19926;-80
2021/03/08 01:01:27;;;;;;;;;;;3.50;99.90;;;;;;5088323;28;19923;-80
2021/03/08 01:03:52;;;;;;;;;;;3.40;99.90;;;;;;5079524;28;19923;-79
2021/03/08 01:06:18;;;;;;;;;;;3.40;99.90;;;;;;5088908;28;20006;-78
2021/03/08 01:08:44;;;;;;;;;;;3.40;99.90;;;;;;5093019;28;19927;-78
2021/03/08 01:11:09;;;;;;;;;;;3.40;99.90;;;;;;5111083;28;19931;-82
2021/03/08 01:13:35;;;;;;;;;;;3.40;99.90;;;;;;5075738;28;19969;-78
2021/03/08 01:16:01;;;;;;;;;;;3.40;99.90;;;;;;5111284;28;20272;-78
2021/03/08 01:18:27;;;;;;;;;;;3.40;99.90;;;;;;5091069;28;20371;-78
2021/03/08 01:20:53;;;;;;;;;;;3.40;99.90;;;;;;5093090;28;19977;-78
2021/03/08 01:23:18;;;;;;;;;;;3.40;99.90;;;;;;5108672;28;19948;-78
2021/03/08 01:25:44;;;;;;;;;;;3.30;99.90;;;;;;5102560;28;19924;-80
2021/03/08 01:28:10;;;;;;;;;;;3.30;99.90;;;;;;5110966;28;20010;-78
2021/03/08 01:30:37;;;;;;;;;;;3.30;99.90;;;;;;5110490;28;20328;-77
2021/03/08 01:33:03;;;;;;;;;;;3.40;99.90;;;;;;5079246;28;19924;-78
2021/03/08 01:35:29;;;;;;;;;;;3.30;99.90;;;;;;5091303;28;20428;-78
2021/03/08 01:37:54;;;;;;;;;;;3.30;99.90;;;;;;5092794;28;19926;-78
2021/03/08 01:40:22;;;;;;;;;;;3.30;99.90;;;;;;5110053;28;19923;-81
2021/03/08 01:42:47;;;;;;;;;;;3.30;99.90;;;;;;5104888;28;20041;-77
2021/03/08 01:45:14;;;;;;;;;;;3.30;99.90;;;;;;5092122;28;20014;-81
2021/03/08 01:47:41;;;;;;;;;;;3.20;99.90;;;;;;5092766;28;19924;-78
2021/03/08 01:50:12;;;;;;;;;;;3.30;99.90;;;;;;5109791;28;19926;-78
2021/03/08 01:52:37;;;;;;;;;;;3.20;99.90;;;;;;5091208;28;20375;-78
2021/03/08 01:55:03;;;;;;;;;;;3.20;99.90;;;;;;5107342;28;19954;-77
2021/03/08 01:57:29;;;;;;;;;;;3.20;99.90;;;;;;5109044;28;19919;-78
2021/03/08 01:59:55;;;;;;;;;;;3.20;99.90;;;;;;5110208;28;20395;-78
2021/03/08 02:02:21;;;;;;;;;;;3.10;99.90;;;;;;5088823;28;19920;-78
2021/03/08 02:04:47;;;;;;;;;;;3.10;99.90;;;;;;5091986;28;19919;-78
2021/03/08 02:07:12;;;;;;;;;;;3.20;99.90;;;;;;5095450;28;20337;-79
2021/03/08 02:09:38;;;;;;;;;;;3.10;99.90;;;;;;5079336;28;19919;-78
2021/03/08 02:12:12;;;;;;;;;;;3.10;99.90;;;;;;5109758;28;20389;-78
2021/03/08 02:14:47;;;;;;;;;;;3.10;99.90;;;;;;5078161;28;20513;-78
2021/03/08 02:17:16;;;;;;;;;;;3.10;99.90;;;;;;5092128;28;19924;-78
2021/03/08 02:20:04;;;;;;;;;;;3.10;99.90;;;;;;5109372;28;19926;-77
2021/03/08 02:22:49;;;;;;;;;;;3.10;99.90;;;;;;5077562;28;19920;-78
2021/03/08 02:25:34;;;;;;;;;;;3.10;99.90;;;;;;5110224;28;19988;-78
2021/03/08 02:28:18;;;;;;;;;;;3.10;99.90;;;;;;5073193;28;19920;-78
2021/03/08 02:30:44;;;;;;;;;;;3.10;99.90;;;;;;5102545;28;19919;-78
2021/03/08 02:33:12;;;;;;;;;;;3.10;99.90;;;;;;5073972;28;19927;-78
2021/03/08 02:35:42;;;;;;;;;;;3.10;99.90;;;;;;5083499;28;20887;-78
2021/03/08 02:38:12;;;;;;;;;;;3.10;99.90;;;;;;5077593;28;19989;-78
2021/03/08 02:40:42;;;;;;;;;;;3.00;99.90;;;;;;5109307;28;19953;-78
2021/03/08 02:43:12;;;;;;;;;;;3.00;99.90;;;;;;5109169;28;19919;-77
2021/03/08 02:45:37;;;;;;;;;;;3.00;99.90;;;;;;5108492;28;19926;-78
2021/03/08 02:48:05;;;;;;;;;;;3.00;99.90;;;;;;5091962;28;19920;-78
2021/03/08 02:50:34;;;;;;;;;;;3.00;99.90;;;;;;5109241;28;19926;-78
2021/03/08 02:53:05;;;;;;;;;;;3.00;99.90;;;;;;5077579;28;20291;-79
2021/03/08 02:55:35;;;;;;;;;;;3.00;99.90;;;;;;5109088;28;19919;-78
2021/03/08 02:58:01;;;;;;;;;;;2.90;99.90;;;;;;5110100;28;20018;-80
2021/03/08 03:00:29;;;;;;;;;;;2.90;99.90;;;;;;5108486;28;19919;-78
2021/03/08 03:02:56;;;;;;;;;;;2.90;99.90;;;;;;5085552;28;19964;-78
2021/03/08 03:05:22;;;;;;;;;;;2.90;99.90;;;;;;5091268;28;20394;-83
2021/03/08 03:07:49;;;;;;;;;;;2.90;99.90;;;;;;5091287;28;19957;-78
2021/03/08 03:10:15;;;;;;;;;;;2.90;99.90;;;;;;5091346;28;19919;-78
2021/03/08 03:12:42;;;;;;;;;;;2.90;99.90;;;;;;5090013;28;19924;-78
2021/03/08 03:15:09;;;;;;;;;;;3.00;99.90;;;;;;5110759;28;20324;-79
2021/03/08 03:17:35;;;;;;;;;;;3.00;99.90;;;;;;5112165;28;19920;-78
2021/03/08 03:20:03;;;;;;;;;;;3.00;99.90;;;;;;5113040;28;19927;-78
2021/03/08 03:22:29;;;;;;;;;;;3.00;99.90;;;;;;5111144;28;19923;-80
2021/03/08 03:24:58;;;;;;;;;;;3.00;99.90;;;;;;5113521;28;19927;-79
2021/03/08 03:27:24;;;;;;;;;;;3.00;99.90;;;;;;5112880;28;20010;-81
2021/03/08 03:29:51;;;;;;;;;;;3.00;99.90;;;;;;5112470;28;19926;-78
2021/03/08 03:32:18;;;;;;;;;;;2.90;99.90;;;;;;5092522;28;20306;-79
2021/03/08 03:34:45;;;;;;;;;;;2.80;99.90;;;;;;5111976;28;19926;-78
2021/03/08 03:37:11;;;;;;;;;;;2.80;99.90;;;;;;5113541;28;19930;-79
2021/03/08 03:39:36;;;;;;;;;;;2.80;99.90;;;;;;5093928;28;19927;-78
2021/03/08 03:42:02;;;;;;;;;;;2.60;99.90;;;;;;5113039;28;19973;-78
2021/03/08 03:44:29;;;;;;;;;;;2.60;99.90;;;;;;5112834;28;20124;-81
2021/03/08 03:46:56;;;;;;;;;;;2.60;99.90;;;;;;5113210;28;19951;-77
2021/03/08 03:49:22;;;;;;;;;;;2.50;99.90;;;;;;5113076;28;19920;-77
2021/03/08 03:51:48;;;;;;;;;;;2.50;99.90;;;;;;5110920;28;20377;-77
2021/03/08 03:54:13;;;;;;;;;;;2.50;99.90;;;;;;5112940;28;19920;-78
2021/03/08 03:56:50;;;;;;;;;;;2.40;99.90;;;;;;5111550;28;20619;-77
2021/03/08 03:59:20;;;;;;;;;;;2.40;99.90;;;;;;5112651;28;19992;-77
2021/03/08 04:01:59;;;;;;;;;;;2.40;99.90;;;;;;5104592;28;19939;-78
2021/03/08 04:04:27;;;;;;;;;;;2.40;99.90;;;;;;5112048;28;19919;-77
2021/03/08 04:06:53;;;;;;;;;;;2.40;99.90;;;;;;5109474;28;19976;-78
2021/03/08 04:09:23;;;;;;;;;;;2.40;99.90;;;;;;5112677;28;20328;-78
2021/03/08 04:11:51;;;;;;;;;;;2.40;99.90;;;;;;5093700;28;19919;-78
2021/03/08 04:14:18;;;;;;;;;;;2.40;99.90;;;;;;5112408;28;19924;-80
2021/03/08 04:16:47;;;;;;;;;;;2.40;99.90;;;;;;5111684;28;19924;-78
2021/03/08 04:19:14;;;;;;;;;;;2.30;99.90;;;;;;5097574;28;20298;-78
2021/03/08 04:21:40;;;;;;;;;;;2.30;99.90;;;;;;5111631;28;19932;-78
2021/03/08 04:24:07;;;;;;;;;;;2.30;99.90;;;;;;5094026;28;19924;-78
2021/03/08 04:26:35;;;;;;;;;;;2.30;99.90;;;;;;5110382;28;20294;-82
2021/03/08 04:29:01;;;;;;;;;;;2.20;99.90;;;;;;5094027;28;20403;-78
2021/03/08 04:31:26;;;;;;;;;;;2.10;99.90;;;;;;5111138;28;19923;-79
2021/03/08 04:33:53;;;;;;;;;;;2.10;99.90;;;;;;5080853;28;19968;-78
2021/03/08 04:36:19;;;;;;;;;;;2.00;99.90;;;;;;5090294;28;21207;-78
2021/03/08 04:38:45;;;;;;;;;;;2.00;99.90;;;;;;5093095;28;19923;-80
2021/03/08 04:41:11;;;;;;;;;;;1.90;99.90;;;;;;5093428;28;19920;-78
2021/03/08 04:43:40;;;;;;;;;;;1.80;99.90;;;;;;5110567;28;20345;-79
2021/03/08 04:46:06;;;;;;;;;;;1.80;99.90;;;;;;5094173;28;19920;-77
2021/03/08 04:48:33;;;;;;;;;;;1.80;99.90;;;;;;5089614;28;19920;-81
2021/03/08 04:50:59;;;;;;;;;;;1.70;99.90;;;;;;5102222;28;19920;-78
2021/03/08 04:53:25;;;;;;;;;;;1.60;99.90;;;;;;5111122;28;19930;-78
2021/03/08 04:55:55;;;;;;;;;;;1.50;99.90;;;;;;5111321;28;20294;-78
2021/03/08 04:58:23;;;;;;;;;;;1.60;99.90;;;;;;5093810;28;20502;-78
2021/03/08 05:00:49;;;;;;;;;;;1.40;99.90;;;;;;5109522;28;19924;-78
2021/03/08 05:03:15;;;;;;;;;;;1.30;99.90;;;;;;5088029;28;19972;-78
2021/03/08 05:05:42;;;;;;;;;;;1.30;99.90;;;;;;5110431;28;19939;-79
2021/03/08 05:08:10;;;;;;;;;;;1.20;99.90;;;;;;5107568;28;19955;-78
2021/03/08 05:10:37;;;;;;;;;;;1.10;99.90;;;;;;5092930;28;19923;-82
2021/03/08 05:13:05;;;;;;;;;;;1.10;99.90;;;;;;5093257;28;20294;-78
2021/03/08 05:15:31;;;;;;;;;;;1.00;99.90;;;;;;5093488;28;20003;-78
2021/03/08 05:17:58;;;;;;;;;;;1.00;99.90;;;;;;5092027;28;20176;-80
2021/03/08 05:20:24;;;;;;;;;;;0.90;99.90;;;;;;5111139;28;19969;-78
2021/03/08 05:22:50;;;;;;;;;;;0.80;99.90;;;;;;5110170;28;19951;-78
2021/03/08 05:25:15;;;;;;;;;;;0.80;99.90;;;;;;5111364;28;19955;-78
2021/03/08 05:27:43;;;;;;;;;;;0.70;99.90;;;;;;5091766;28;19962;-85
2021/03/08 05:30:13;;;;;;;;;;;0.70;99.90;;;;;;5093122;28;19923;-80
2021/03/08 05:32:49;;;;;;;;;;;0.60;99.90;;;;;;5091814;28;19955;-85
2021/03/08 05:35:15;;;;;;;;;;;0.60;99.90;;;;;;5111557;28;20264;-81
2021/03/08 05:37:41;;;;;;;;;;;0.60;99.90;;;;;;5079472;28;19998;-84
2021/03/08 05:40:27;;;;;;;;;;;0.40;99.90;;;;;;5110286;28;20397;-80
2021/03/08 05:42:57;;;;;;;;;;;0.40;99.90;;;;;;5085314;28;20019;-82
2021/03/08 05:45:26;;;;;;;;;;;0.30;99.90;;;;;;5103567;28;19967;-80
2021/03/08 05:48:01;;;;;;;;;;;0.30;99.90;;;;;;5090315;28;19935;-80
2021/03/08 05:50:41;;;;;;;;;;;0.30;99.90;;;;;;5080015;28;19958;-81
2021/03/08 05:53:11;;;;;;;;;;;0.20;99.90;;;;;;5089825;28;19961;-80
2021/03/08 05:55:49;;;;;;;;;;;0.30;99.90;;;;;;5082062;28;19934;-84
2021/03/08 05:58:33;;;;;;;;;;;0.30;99.90;;;;;;5091221;28;19920;-81
2021/03/08 06:01:10;;;;;;;;;;;0.20;99.90;;;;;;5089552;28;19920;-80
2021/03/08 06:03:54;;;;;;;;;;;0.30;99.90;;;;;;5086969;28;19920;-80
2021/03/08 06:06:46;;;;;;;;;;;0.30;99.90;;;;;;5072351;28;19920;-79
2021/03/08 06:09:25;;;;;;;;;;;0.20;99.90;;;;;;5104997;28;19935;-79
2021/03/08 06:12:03;;;;;;;;;;;0.20;99.90;;;;;;5091781;28;19920;-79
2021/03/08 06:14:39;;;;;;;;;;;0.20;99.90;;;;;;5110019;28;19927;-80
2021/03/08 06:17:05;;;;;;;;;;;0.20;99.90;;;;;;5109755;28;19915;-80
2021/03/08 06:19:32;;;;;;;;;;;0.20;99.90;;;;;;5108428;28;19923;-80
2021/03/08 06:21:58;;;;;;;;;;;0.20;99.90;;;;;;5091694;28;20381;-79
2021/03/08 06:24:24;;;;;;;;;;;0.20;99.90;;;;;;5110195;28;20054;-81
2021/03/08 06:26:51;;;;;;;;;;;0.20;99.90;;;;;;5109819;28;19919;-79
2021/03/08 06:29:17;;;;;;;;;;;0.10;99.90;;;;;;5109204;28;19923;-79
2021/03/08 06:31:43;;;;;;;;;;;0.20;99.90;;;;;;5091039;28;19927;-79
2021/03/08 06:34:08;;;;;;;;;;;0.20;99.90;;;;;;5091345;28;20171;-79
2021/03/08 06:36:38;;;;;;;;;;;0.10;99.90;;;;;;5110248;28;19920;-79
2021/03/08 06:39:04;;;;;;;;;;;0.20;99.90;;;;;;5097015;28;19920;-79
2021/03/08 06:41:31;;;;;;;;;;;0.20;99.90;;;;;;5089242;28;19960;-79
2021/03/08 06:43:56;;;;;;;;;;;0.20;99.90;;;;;;5090964;28;19931;-79
2021/03/08 06:46:22;;;;;;;;;;;0.20;99.90;;;;;;5109955;28;19919;-79
2021/03/08 06:48:48;;;;;;;;;;;0.20;99.90;;;;;;5090862;28;19928;-83
2021/03/08 06:51:18;;;;;;;;;;;0.20;99.90;;;;;;5112714;28;19920;-79
2021/03/08 06:53:45;;;;;;;;;;;0.20;99.90;;;;;;5079305;28;19924;-80
2021/03/08 06:56:18;;;;;;;;;;;0.20;99.90;;;;;;5075364;28;19947;-80
2021/03/08 06:59:02;;;;;;;;;;;0.20;99.90;;;;;;5113440;28;19919;-79
2021/03/08 07:01:34;;;;;;;;;;;0.10;99.90;;;;;;5089810;28;19969;-78
2021/03/08 07:04:01;;;;;;;;;;;0.10;99.90;;;;;;5099709;28;19930;-78
2021/03/08 07:06:27;;;;;;;;;;;0.10;99.90;;;;;;5095956;28;19923;-78
2021/03/08 07:09:03;;;;;;;;;;;0.20;99.90;;;;;;5113311;28;19924;-83
2021/03/08 07:11:28;;;;;;;;;;;0.20;99.90;;;;;;5095237;28;19973;-79
2021/03/08 07:13:54;;;;;;;;;;;0.30;99.90;;;;;;5113187;28;19923;-82
2021/03/08 07:16:20;;;;;;;;;;;0.40;99.90;;;;;;5092228;28;19924;-79
2021/03/08 07:18:57;;;;;;;;;;;0.50;99.90;;;;;;5070499;28;19960;-79
2021/03/08 07:21:23;;;;;;;;;;;0.60;99.90;;;;;;5095239;28;19920;-79
2021/03/08 07:23:50;;;;;;;;;;;0.70;99.90;;;;;;5113084;28;19926;-80
2021/03/08 07:26:19;;;;;;;;;;;0.70;99.90;;;;;;5112537;28;19919;-79
2021/03/08 07:29:04;;;;;;;;;;;0.80;99.90;;;;;;5113540;28;19926;-79
2021/03/08 07:31:34;;;;;;;;;;;0.90;99.90;;;;;;5092997;28;19943;-79
2021/03/08 07:34:00;;;;;;;;;;;1.00;99.90;;;;;;5112751;28;19950;-79
2021/03/08 07:36:26;;;;;;;;;;;1.10;99.90;;;;;;5090531;28;19924;-79
2021/03/08 07:38:51;;;;;;;;;;;1.10;99.90;;;;;;5084757;28;20375;-79
2021/03/08 07:41:21;;;;;;;;;;;1.20;99.90;;;;;;5093676;28;19923;-80
2021/03/08 07:44:05;;;;;;;;;;;1.30;99.90;;;;;;5092270;28;19970;-80
2021/03/08 07:46:34;;;;;;;;;;;1.30;99.90;;;;;;5088730;28;19920;-80
2021/03/08 07:49:01;;;;;;;;;;;1.40;99.90;;;;;;5084139;28;19920;-80
2021/03/08 07:51:27;;;;;;;;;;;1.50;99.90;;;;;;5085332;28;19919;-79
2021/03/08 07:54:03;;;;;;;;;;;1.60;99.90;;;;;;5112798;28;19926;-80
2021/03/08 07:56:29;;;;;;;;;;;1.60;99.90;;;;;;5085745;28;19963;-79
2021/03/08 07:58:55;;;;;;;;;;;1.60;99.90;;;;;;5077552;28;19963;-81
2021/03/08 08:01:21;;;;;;;;;;;1.60;99.90;;;;;;5079874;28;19919;-79
2021/03/08 08:03:47;;;;;;;;;;;1.70;99.90;;;;;;5105860;28;19962;-79
2021/03/08 08:06:16;;;;;;;;;;;1.70;99.90;;;;;;5084384;28;20000;-79
2021/03/08 08:08:48;;;;;;;;;;;1.70;99.90;;;;;;5108372;28;19920;-79
2021/03/08 08:11:16;;;;;;;;;;;1.80;99.90;;;;;;5100929;28;20002;-80
2021/03/08 08:13:43;;;;;;;;;;;1.80;99.90;;;;;;5101184;28;20053;-80
2021/03/08 08:16:09;;;;;;;;;;;1.90;99.90;;;;;;5101526;28;19920;-81
2021/03/08 08:18:37;;;;;;;;;;;2.00;99.90;;;;;;5112374;28;19924;-80
2021/03/08 08:21:04;;;;;;;;;;;2.10;99.90;;;;;;5069447;28;19923;-80
2021/03/08 08:23:31;;;;;;;;;;;2.10;99.90;;;;;;5070183;28;19923;-80
2021/03/08 08:25:57;;;;;;;;;;;2.30;99.90;;;;;;5080301;28;19934;-83
2021/03/08 08:28:23;;;;;;;;;;;2.40;99.90;;;;;;5060650;28;19926;-80
2021/03/08 08:30:56;;;;;;;;;;;2.50;99.90;;;;;;5072476;28;19924;-81
2021/03/08 08:33:26;;;;;;;;;;;2.60;99.90;;;;;;5069546;28;20518;-81
2021/03/08 08:36:05;;;;;;;;;;;2.70;99.90;;;;;;5070545;28;20052;-82
2021/03/08 08:38:31;;;;;;;;;;;2.90;99.90;;;;;;5091515;28;19920;-78
2021/03/08 08:41:15;;;;;;;;;;;3.00;99.90;;;;;;5066439;28;19924;-81
2021/03/08 08:43:41;;;;;;;;;;;3.10;99.90;;;;;;5083854;28;19931;-81
2021/03/08 08:46:26;;;;;;;;;;;3.20;99.90;;;;;;5089804;28;19920;-80
2021/03/08 08:49:07;;;;;;;;;;;3.20;99.90;;;;;;5079568;28;20004;-80
2021/03/08 08:51:52;;;;;;;;;;;3.20;99.90;;;;;;5086714;28;19924;-83
2021/03/08 08:54:28;;;;;;;;;;;3.30;99.90;;;;;;5060476;28;19942;-80
2021/03/08 08:57:08;;;;;;;;;;;3.30;99.90;;;;;;5060962;28;19923;-80
2021/03/08 08:59:35;;;;;;;;;;;3.40;99.90;;;;;;5070387;28;19930;-80
2021/03/08 09:02:14;;;;;;;;;;;3.40;99.90;;;;;;5084416;28;19920;-81
2021/03/08 09:04:40;;;;;;;;;;;3.50;99.90;;;;;;5055303;28;19924;-82
2021/03/08 09:07:19;;;;;;;;;;;3.50;99.90;;;;;;5069915;28;20466;-86
2021/03/08 09:09:48;;;;;;;;;;;3.60;99.90;;;;;;5064228;28;20386;-82
2021/03/08 09:12:26;;;;;;;;;;;3.60;99.90;;;;;;5089038;28;19923;-81
2021/03/08 09:14:59;;;;;;;;;;;3.70;99.90;;;;;;5090830;28;19924;-81
2021/03/08 09:17:25;;;;;;;;;;;3.90;99.90;;;;;;5089671;28;19916;-82
2021/03/08 09:19:57;;;;;;;;;;;4.00;99.90;;;;;;5082410;28;19927;-81
2021/03/08 09:22:23;;;;;;;;;;;4.10;99.90;;;;;;5110034;28;20006;-84
2021/03/08 09:24:57;;;;;;;;;;;4.20;99.90;;;;;;5078100;28;20108;-82
2021/03/08 09:27:27;;;;;;;;;;;4.20;99.90;;;;;;5109198;28;19927;-83
2021/03/08 09:29:53;;;;;;;;;;;4.30;99.90;;;;;;5091524;28;20025;-84
2021/03/08 09:32:19;;;;;;;;;;;4.20;99.90;;;;;;5084698;28;20680;-83
2021/03/08 09:34:45;;;;;;;;;;;4.40;99.90;;;;;;5090421;28;20014;-82
2021/03/08 09:37:11;;;;;;;;;;;4.40;99.90;;;;;;5109819;28;19927;-81
2021/03/08 09:39:53;;;;;;;;;;;4.50;99.90;;;;;;5105100;28;19959;-83
2021/03/08 09:42:19;;;;;;;;;;;4.50;99.90;;;;;;5081864;28;19920;-82
2021/03/08 09:44:45;;;;;;;;;;;4.60;99.90;;;;;;5096545;28;20420;-85
2021/03/08 09:47:11;;;;;;;;;;;4.60;99.90;;;;;;5106378;28;19920;-81
2021/03/08 09:50:06;;;;;;;;;;;4.70;99.90;;;;;;5098234;28;19980;-84
2021/03/08 09:52:35;;;;;;;;;;;4.80;99.90;;;;;;5088941;28;19920;-81
2021/03/08 09:55:03;;;;;;;;;;;4.90;99.90;;;;;;5071416;28;19926;-82
2021/03/08 09:57:39;;;;;;;;;;;5.00;99.90;;;;;;5105015;28;19981;-84
2021/03/08 10:00:10;;;;;;;;;;;5.00;99.90;;;;;;5085099;28;19934;-85
2021/03/08 10:02:36;;;;;;;;;;;5.10;99.90;;;;;;5091414;28;20158;-85
2021/03/08 10:05:03;;;;;;;;;;;5.30;99.90;;;;;;5098424;28;20361;-82
2021/03/08 10:07:28;;;;;;;;;;;5.30;99.90;;;;;;5094919;28;19947;-82
2021/03/08 10:10:13;;;;;;;;;;;5.40;99.90;;;;;;5101732;28;20574;-83
2021/03/08 10:12:39;;;;;;;;;;;5.40;99.90;;;;;;5109321;28;19927;-83
2021/03/08 10:15:06;;;;;;;;;;;5.50;99.90;;;;;;5081570;28;19920;-83
2021/03/08 10:17:32;;;;;;;;;;;5.60;99.90;;;;;;5086445;28;20006;-82
2021/03/08 10:19:59;;;;;;;;;;;5.70;99.90;;;;;;5091132;28;20455;-82
2021/03/08 10:22:35;;;;;;;;;;;5.80;99.90;;;;;;5093927;28;19923;-82
2021/03/08 10:25:01;;;;;;;;;;;5.80;99.90;;;;;;5109662;28;19923;-82
2021/03/08 10:27:28;;;;;;;;;;;5.90;99.90;;;;;;5090498;28;19920;-82
2021/03/08 10:29:54;;;;;;;;;;;6.00;99.90;;;;;;5094338;28;19941;-82
2021/03/08 10:32:20;;;;;;;;;;;6.00;99.90;;;;;;5089078;28;20375;-82
2021/03/08 10:34:46;;;;;;;;;;;6.10;99.90;;;;;;5082861;28;19959;-82
2021/03/08 10:37:15;;;;;;;;;;;6.10;99.90;;;;;;5079928;28;19919;-86
2021/03/08 10:39:41;;;;;;;;;;;6.20;99.90;;;;;;5088607;28;19930;-83
2021/03/08 10:42:07;;;;;;;;;;;6.20;99.90;;;;;;5093257;28;19965;-82
2021/03/08 10:44:33;;;;;;;;;;;6.20;99.90;;;;;;5080513;28;20241;-82
2021/03/08 10:46:59;;;;;;;;;;;6.30;99.90;;;;;;5102497;28;19999;-82
2021/03/08 10:49:24;;;;;;;;;;;6.40;99.90;;;;;;5074278;28;19965;-83
2021/03/08 10:51:50;;;;;;;;;;;6.50;99.90;;;;;;5093303;28;19920;-84
2021/03/08 10:54:17;;;;;;;;;;;6.60;99.90;;;;;;5071644;28;20415;-87
2021/03/08 10:56:44;;;;;;;;;;;6.70;99.90;;;;;;5083305;28;20091;-83
2021/03/08 10:59:26;;;;;;;;;;;6.70;99.90;;;;;;5079432;28;20382;-83
2021/03/08 11:01:59;;;;;;;;;;;6.80;99.90;;;;;;5102945;28;20402;-84
2021/03/08 11:04:24;;;;;;;;;;;6.90;99.90;;;;;;5074694;28;19928;-83
2021/03/08 11:06:50;;;;;;;;;;;7.00;99.90;;;;;;5088736;28;19969;-82
2021/03/08 11:09:24;;;;;;;;;;;7.00;99.90;;;;;;5080876;28;19928;-86
2021/03/08 11:11:49;;;;;;;;;;;7.10;99.90;;;;;;5109112;28;20061;-82
2021/03/08 11:14:15;;;;;;;;;;;7.20;99.90;;;;;;5087431;28;20423;-86
2021/03/08 11:16:48;;;;;;;;;;;7.30;99.90;;;;;;5090487;28;20432;-82
2021/03/08 11:19:15;;;;;;;;;;;7.40;99.90;;;;;;5090617;28;19927;-84
2021/03/08 11:21:41;;;;;;;;;;;7.50;99.90;;;;;;5070335;28;20346;-82
2021/03/08 11:24:20;;;;;;;;;;;7.60;99.90;;;;;;5085272;28;19927;-83
2021/03/08 11:27:23;;;;;;;;;;;7.60;99.90;;;;;;5091425;28;19919;-83
2021/03/08 11:30:21;;;;;;;;;;;7.60;99.90;;;;;;4990105;28;19925;-83
2021/03/08 11:32:51;;;;;;;;;;;7.60;99.90;;;;;;5049849;28;20386;-83
2021/03/08 11:35:22;;;;;;;;;;;7.80;99.90;;;;;;5082926;28;20276;-84
2021/03/08 11:37:49;;;;;;;;;;;7.90;99.90;;;;;;5107026;28;20390;-85
2021/03/08 11:40:15;;;;;;;;;;;8.00;99.90;;;;;;5084125;28;19924;-83
2021/03/08 11:42:41;;;;;;;;;;;7.90;99.90;;;;;;5090950;28;19926;-83
2021/03/08 11:45:07;;;;;;;;;;;8.00;99.90;;;;;;5079148;28;19920;-83
2021/03/08 11:47:33;;;;;;;;;;;8.20;99.90;;;;;;5079649;28;19924;-83
2021/03/08 11:49:58;;;;;;;;;;;8.20;99.90;;;;;;5090479;28;20282;-83
2021/03/08 11:52:24;;;;;;;;;;;8.40;99.90;;;;;;5073567;28;19924;-84
2021/03/08 11:54:50;;;;;;;;;;;8.60;99.90;;;;;;5081959;28;19920;-84
2021/03/08 11:57:16;;;;;;;;;;;8.70;99.90;;;;;;5057397;28;19935;-84
2021/03/08 11:59:42;;;;;;;;;;;8.70;99.90;;;;;;5084819;28;20518;-83
2021/03/08 12:02:08;;;;;;;;;;;8.60;99.90;;;;;;5059752;28;19988;-86
2021/03/08 12:04:34;;;;;;;;;;;8.60;99.90;;;;;;5084746;28;19920;-83
2021/03/08 12:07:00;;;;;;;;;;;8.60;99.90;;;;;;5098633;28;20014;-82
2021/03/08 12:09:26;;;;;;;;;;;8.70;99.90;;;;;;5106146;28;19923;-84
2021/03/08 12:11:52;;;;;;;;;;;9.00;99.90;;;;;;5111267;28;19934;-84
2021/03/08 12:14:17;;;;;;;;;;;9.00;99.90;;;;;;5093611;28;20390;-85
2021/03/08 12:16:43;;;;;;;;;;;9.10;99.90;;;;;;5093620;28;19916;-83
2021/03/08 12:19:09;;;;;;;;;;;9.10;99.00;;;;;;5092654;28;20432;-86
2021/03/08 12:21:35;;;;;;;;;;;9.10;99.90;;;;;;5093369;28;19927;-84
2021/03/08 12:24:00;;;;;;;;;;;9.10;99.90;;;;;;5076178;28;20517;-84
2021/03/08 12:26:26;;;;;;;;;;;9.30;99.90;;;;;;5076415;28;20277;-87
2021/03/08 12:28:52;;;;;;;;;;;9.20;99.90;;;;;;5076247;28;20363;-84
2021/03/08 12:31:18;;;;;;;;;;;9.10;99.90;;;;;;5092446;28;19923;-83
2021/03/08 12:33:44;;;;;;;;;;;9.10;99.90;;;;;;5092963;28;19920;-83
2021/03/08 12:36:09;;;;;;;;;;;9.10;99.90;;;;;;5111616;28;19968;-84
2021/03/08 12:38:35;;;;;;;;;;;9.20;99.90;;;;;;5110121;28;19920;-83
2021/03/08 12:41:01;;;;;;;;;;;9.20;99.90;;;;;;5111817;28;19924;-85
2021/03/08 12:43:27;;;;;;;;;;;9.20;99.90;;;;;;5102761;28;19919;-88
2021/03/08 12:45:53;;;;;;;;;;;9.40;99.90;;;;;;5076172;28;19928;-86
2021/03/08 12:48:18;;;;;;;;;;;9.40;99.90;;;;;;5108826;28;19920;-84
2021/03/08 12:50:44;;;;;;;;;;;9.50;99.90;;;;;;5082014;28;20374;-83
2021/03/08 12:53:11;;;;;;;;;;;9.70;99.90;;;;;;5093008;28;19919;-84
2021/03/08 12:55:40;;;;;;;;;;;9.90;99.90;;;;;;5110562;28;20398;-85
2021/03/08 12:58:06;;;;;;;;;;;10.00;99.90;;;;;;5092852;28;19935;-84
2021/03/08 13:00:33;;;;;;;;;;;10.00;99.90;;;;;;5109695;28;20279;-87
2021/03/08 13:02:58;;;;;;;;;;;9.80;99.90;;;;;;5110998;28;20069;-84
2021/03/08 13:05:24;;;;;;;;;;;9.90;99.90;;;;;;5111309;28;20002;-88
2021/03/08 13:07:50;;;;;;;;;;;10.10;99.90;;;;;;5110615;28;19915;-84
2021/03/08 13:10:17;;;;;;;;;;;10.10;99.90;;;;;;5110023;28;19924;-84
2021/03/08 13:12:42;;;;;;;;;;;9.90;99.90;;;;;;5074536;28;19958;-84
2021/03/08 13:15:08;;;;;;;;;;;9.70;99.90;;;;;;5110977;28;19963;-83
2021/03/08 13:17:34;;;;;;;;;;;9.60;99.90;;;;;;5092035;28;19920;-88
2021/03/08 13:20:00;;;;;;;;;;;9.80;99.90;;;;;;5080829;28;19966;-84
2021/03/08 13:22:26;;;;;;;;;;;9.80;99.90;;;;;;5085257;28;19923;-84
2021/03/08 13:24:51;;;;;;;;;;;10.00;99.90;;;;;;5089061;28;19923;-83
2021/03/08 13:27:17;;;;;;;;;;;9.90;99.90;;;;;;5072272;28;20390;-85
2021/03/08 13:29:43;;;;;;;;;;;9.70;99.90;;;;;;5039603;28;19925;-83
2021/03/08 13:32:08;;;;;;;;;;;9.70;99.90;;;;;;5075040;28;19924;-85
2021/03/08 13:34:34;;;;;;;;;;;9.90;99.90;;;;;;5054106;28;20459;-88
2021/03/08 13:37:03;;;;;;;;;;;9.90;99.90;;;;;;5084050;28;19993;-86
2021/03/08 13:39:29;;;;;;;;;;;9.90;99.90;;;;;;5064154;28;19924;-84
2021/03/08 13:41:54;;;;;;;;;;;9.70;99.90;;;;;;5075954;28;20120;-83
2021/03/08 13:44:21;;;;;;;;;;;9.60;99.90;;;;;;5059020;28;20726;-83
2021/03/08 13:46:48;;;;;;;;;;;9.40;99.90;;;;;;5082937;28;19962;-82
2021/03/08 13:49:13;;;;;;;;;;;9.40;99.90;;;;;;5058796;28;19966;-84
2021/03/08 13:51:39;;;;;;;;;;;9.80;99.90;;;;;;5085726;28;19924;-83
2021/03/08 13:54:05;;;;;;;;;;;9.80;99.90;;;;;;5061494;28;19924;-84
2021/03/08 13:56:31;;;;;;;;;;;9.60;99.90;;;;;;5070154;28;20019;-83
2021/03/08 13:58:57;;;;;;;;;;;9.60;99.90;;;;;;5075881;28;20089;-84
2021/03/08 14:01:23;;;;;;;;;;;9.60;99.90;;;;;;5069985;28;20390;-83
2021/03/08 14:03:49;;;;;;;;;;;9.60;99.90;;;;;;5083406;28;19984;-83
2021/03/08 14:06:14;;;;;;;;;;;9.50;99.90;;;;;;5069871;28;20299;-83
2021/03/08 14:08:40;;;;;;;;;;;9.40;99.90;;;;;;5066035;28;19920;-85
2021/03/08 14:11:06;;;;;;;;;;;9.30;99.90;;;;;;5068987;28;20385;-83
2021/03/08 14:13:31;;;;;;;;;;;9.20;99.90;;;;;;5047790;28;19924;-83
2021/03/08 14:15:57;;;;;;;;;;;9.10;99.90;;;;;;5069166;28;20007;-85
2021/03/08 14:18:23;;;;;;;;;;;8.90;99.90;;;;;;5062121;28;19920;-83
2021/03/08 14:20:49;;;;;;;;;;;8.90;99.90;;;;;;5086034;28;20014;-84
2021/03/08 14:23:15;;;;;;;;;;;8.70;99.90;;;;;;5073234;28;19927;-83
2021/03/08 14:25:41;;;;;;;;;;;8.80;99.90;;;;;;5092329;28;20665;-84
2021/03/08 14:28:07;;;;;;;;;;;8.90;99.90;;;;;;5078893;28;20010;-83
2021/03/08 14:30:33;;;;;;;;;;;8.90;99.90;;;;;;5090689;28;19919;-86
2021/03/08 14:32:59;;;;;;;;;;;9.00;99.90;;;;;;5081028;28;20549;-83
2021/03/08 14:35:24;;;;;;;;;;;8.80;99.90;;;;;;5065992;28;19985;-83
2021/03/08 14:37:50;;;;;;;;;;;8.70;99.90;;;;;;5107941;28;19920;-84